Bontekoning — PH9144 — position and weather

sailwx.info

Track history (hours):
 
Tides and Currents Weather Stations Pressure Air Temp Water Temp Dewpoint Dewpoint Depression Visibility Wind Speed Wind Dir Waves Ship Positions

Bontekoning

Last reported at 2016-May-06 16:16 UTC. Time now 2016-May-25 14:57 UTC.
Position N 39°13' W 009°27'.
Warning: this ship's position is 18 days out of date.

; draft 2.6 m.

Type: Sailing vessel. MMSI: 244107000.

Date/timePositionNaut miles runAvg speedWind from/ knotsBaromVisibWave heightAir tempDewpointWater temp
2016-May-06 16:16N 39°13' W 009°27'5 7.1
2016-May-06 15:33N 39°08' W 009°28'6 6.4
2016-May-06 14:33N 39°02' W 009°29'6 6.0
2016-May-06 13:33N 38°56' W 009°30'6 5.7
2016-May-06 12:33N 38°50' W 009°31'6 5.6
2016-May-06 11:33N 38°45' W 009°30'4 4.1
2016-May-06 10:33N 38°41' W 009°27'2 1.8
2016-May-06 09:33N 38°42' W 009°25'0 0.0
2016-May-06 08:33N 38°42' W 009°25'0 0.0
2016-May-06 07:33N 38°42' W 009°25'0 0.0
2016-May-06 06:33N 38°42' W 009°25'0 0.0
2016-May-06 05:33N 38°42' W 009°25'0 0.0
2016-May-06 04:33N 38°42' W 009°25'0 0.0
2016-May-06 03:33N 38°42' W 009°25'0 0.0
2016-May-06 02:33N 38°42' W 009°25'0 0.0
2016-May-06 01:33N 38°42' W 009°25'0 0.0
2016-May-06 00:33N 38°42' W 009°25'0 0.0
2016-May-05 23:33N 38°42' W 009°25'0 0.0
2016-May-05 22:33N 38°42' W 009°25'0 0.0
2016-May-05 21:32N 38°42' W 009°25'0 0.0
2016-May-05 20:31N 38°42' W 009°25'0 0.0
2016-May-05 19:33N 38°42' W 009°25'0 0.0
2016-May-05 18:33N 38°42' W 009°25'0 0.0
2016-May-05 17:33N 38°42' W 009°25'0 0.0
2016-May-05 16:30N 38°42' W 009°25'0 0.0
2016-May-05 15:33N 38°42' W 009°25'0 0.0
2016-May-05 14:33N 38°42' W 009°25'0 0.0
2016-May-05 13:33N 38°42' W 009°25'0 0.0
2016-May-05 12:28N 38°42' W 009°25'0 0.0
2016-May-05 11:27N 38°42' W 009°25'0 0.0
2016-May-05 10:33N 38°42' W 009°25'0 0.0
2016-May-05 09:32N 38°42' W 009°25'0 0.0
2016-May-05 08:32N 38°42' W 009°25'0 0.0
2016-May-05 07:33N 38°42' W 009°25'0 0.0
2016-May-05 06:33N 38°42' W 009°25'0 0.0
2016-May-05 05:33N 38°42' W 009°25'0 0.0
2016-May-05 04:33N 38°42' W 009°25'0 0.0
2016-May-05 03:33N 38°42' W 009°25'0 0.0
2016-May-05 02:33N 38°42' W 009°25'0 0.0
2016-May-05 01:34N 38°42' W 009°25'0 0.0
2016-May-05 00:33N 38°42' W 009°25'0 0.0
2016-May-04 23:33N 38°42' W 009°25'0 0.0
2016-May-04 22:31N 38°42' W 009°25'0 0.0
2016-May-04 21:33N 38°42' W 009°25'0 0.0
2016-May-04 20:31N 38°42' W 009°25'0 0.0
2016-May-04 19:33N 38°42' W 009°25'0 0.0
2016-May-04 18:33N 38°42' W 009°25'0 0.0
2016-May-04 17:33N 38°42' W 009°25'0 0.0
2016-May-04 16:33N 38°42' W 009°25'0 0.0
2016-May-04 15:33N 38°42' W 009°25'  
Track history (hours):
 
Tides and Currents Weather Stations Pressure Air Temp Water Temp Dewpoint Dewpoint Depression Visibility Wind Speed Wind Dir Waves Ship Positions

Bontekoning

Last reported at 2016-May-06 16:16 UTC. Time now 2016-May-25 14:57 UTC.
Position N 39°13' W 009°27'.
Warning: this ship's position is 18 days out of date.

; draft 2.6 m.

Type: Sailing vessel. MMSI: 244107000.

Date/timePositionNaut miles runAvg speedWind from/ knotsBaromVisibWave heightAir tempDewpointWater temp
2016-May-06 16:16N 39°13' W 009°27'5 7.1
2016-May-06 15:33N 39°08' W 009°28'6 6.4
2016-May-06 14:33N 39°02' W 009°29'6 6.0
2016-May-06 13:33N 38°56' W 009°30'6 5.7
2016-May-06 12:33N 38°50' W 009°31'6 5.6
2016-May-06 11:33N 38°45' W 009°30'4 4.1
2016-May-06 10:33N 38°41' W 009°27'2 1.8
2016-May-06 09:33N 38°42' W 009°25'0 0.0
2016-May-06 08:33N 38°42' W 009°25'0 0.0
2016-May-06 07:33N 38°42' W 009°25'0 0.0
2016-May-06 06:33N 38°42' W 009°25'0 0.0
2016-May-06 05:33N 38°42' W 009°25'0 0.0
2016-May-06 04:33N 38°42' W 009°25'0 0.0
2016-May-06 03:33N 38°42' W 009°25'0 0.0
2016-May-06 02:33N 38°42' W 009°25'0 0.0
2016-May-06 01:33N 38°42' W 009°25'0 0.0
2016-May-06 00:33N 38°42' W 009°25'0 0.0
2016-May-05 23:33N 38°42' W 009°25'0 0.0
2016-May-05 22:33N 38°42' W 009°25'0 0.0
2016-May-05 21:32N 38°42' W 009°25'0 0.0
2016-May-05 20:31N 38°42' W 009°25'0 0.0
2016-May-05 19:33N 38°42' W 009°25'0 0.0
2016-May-05 18:33N 38°42' W 009°25'0 0.0
2016-May-05 17:33N 38°42' W 009°25'0 0.0
2016-May-05 16:30N 38°42' W 009°25'0 0.0
2016-May-05 15:33N 38°42' W 009°25'0 0.0
2016-May-05 14:33N 38°42' W 009°25'0 0.0
2016-May-05 13:33N 38°42' W 009°25'0 0.0
2016-May-05 12:28N 38°42' W 009°25'0 0.0
2016-May-05 11:27N 38°42' W 009°25'0 0.0
2016-May-05 10:33N 38°42' W 009°25'0 0.0
2016-May-05 09:32N 38°42' W 009°25'0 0.0
2016-May-05 08:32N 38°42' W 009°25'0 0.0
2016-May-05 07:33N 38°42' W 009°25'0 0.0
2016-May-05 06:33N 38°42' W 009°25'0 0.0
2016-May-05 05:33N 38°42' W 009°25'0 0.0
2016-May-05 04:33N 38°42' W 009°25'0 0.0
2016-May-05 03:33N 38°42' W 009°25'0 0.0
2016-May-05 02:33N 38°42' W 009°25'0 0.0
2016-May-05 01:34N 38°42' W 009°25'0 0.0
2016-May-05 00:33N 38°42' W 009°25'0 0.0
2016-May-04 23:33N 38°42' W 009°25'0 0.0
2016-May-04 22:31N 38°42' W 009°25'0 0.0
2016-May-04 21:33N 38°42' W 009°25'0 0.0
2016-May-04 20:31N 38°42' W 009°25'0 0.0
2016-May-04 19:33N 38°42' W 009°25'0 0.0
2016-May-04 18:33N 38°42' W 009°25'0 0.0
2016-May-04 17:33N 38°42' W 009°25'0 0.0
2016-May-04 16:33N 38°42' W 009°25'0 0.0
2016-May-04 15:33N 38°42' W 009°25'  

Dump ship's entire track history